createdAt,value
2023-02-21T00:02:43.421Z,99509.38
2023-02-21T00:05:29.315Z,99519.06
2023-02-21T00:08:14.889Z,99510.25
2023-02-21T00:11:00.357Z,99507.59
2023-02-21T00:13:46.287Z,99518.13
2023-02-21T00:16:37.766Z,99522.44
2023-02-21T00:19:23.390Z,99529.47
2023-02-21T00:22:08.976Z,99545.22
2023-02-21T00:24:54.982Z,99553.91
2023-02-21T00:27:40.898Z,99568.88
2023-02-21T00:30:27.431Z,99569.72
2023-02-21T00:33:13.030Z,99579.28
2023-02-21T00:35:58.764Z,99596.00
2023-02-21T00:38:44.056Z,99602.28
2023-02-21T00:41:29.325Z,99577.66
2023-02-21T00:44:14.849Z,99590.94
2023-02-21T00:47:00.122Z,99576.00
2023-02-21T00:49:45.723Z,99553.94
2023-02-21T00:52:31.673Z,99554.72
2023-02-21T00:55:17.170Z,99566.97
2023-02-21T00:58:03.385Z,99577.47
2023-02-21T01:00:48.694Z,99580.84
2023-02-21T01:03:34.023Z,99603.53
2023-02-21T01:06:19.718Z,99612.28
2023-02-21T01:09:06.145Z,99628.97
2023-02-21T01:11:52.135Z,99617.28
2023-02-21T01:14:38.133Z,99637.41
2023-02-21T01:17:23.615Z,99655.94
2023-02-21T01:20:09.291Z,99662.94
2023-02-21T01:22:55.264Z,99671.72
2023-02-21T01:25:41.076Z,99672.75
2023-02-21T01:28:26.860Z,99681.47
2023-02-21T01:31:12.722Z,99677.91
2023-02-21T01:34:00.277Z,99681.38
2023-02-21T01:36:46.803Z,99689.19
2023-02-21T01:39:32.681Z,99698.06
2023-02-21T01:42:19.328Z,99690.00
2023-02-21T01:45:06.999Z,99697.59
2023-02-21T01:47:53.813Z,99717.94
2023-02-21T01:50:50.377Z,99725.75
2023-02-21T01:53:40.790Z,99720.59
2023-02-21T01:56:27.798Z,99741.28
2023-02-21T01:59:16.900Z,99749.81
2023-02-21T02:02:36.781Z,99765.31
2023-02-21T02:05:24.206Z,99777.00
2023-02-21T02:08:10.628Z,99807.53
2023-02-21T02:10:55.918Z,99817.84
2023-02-21T02:13:34.508Z,99841.44
2023-02-21T02:16:41.070Z,99849.50
2023-02-21T02:19:44.655Z,99861.63
2023-02-21T02:22:41.771Z,99874.78
2023-02-21T02:25:23.409Z,99873.97
2023-02-21T02:28:00.813Z,99867.59
2023-02-21T02:30:45.987Z,99876.22
2023-02-21T02:33:43.110Z,99876.97
2023-02-21T02:36:28.906Z,99878.75
2023-02-21T02:39:31.416Z,99892.81
2023-02-21T02:42:06.891Z,99895.06
2023-02-21T02:44:41.643Z,99912.47
2023-02-21T02:47:16.666Z,99917.47
2023-02-21T02:49:45.482Z,99919.13
2023-02-21T02:52:12.555Z,99921.56
2023-02-21T02:54:39.506Z,99934.66
2023-02-21T02:57:12.952Z,99942.38
2023-02-21T02:59:45.460Z,99954.88
2023-02-21T03:02:56.272Z,99956.78
2023-02-21T03:05:36.070Z,99977.19
2023-02-21T03:08:31.450Z,99976.56
2023-02-21T03:11:14.094Z,99995.56
2023-02-21T03:13:47.600Z,100005.25
2023-02-21T03:16:27.308Z,100006.81
2023-02-21T03:19:07.639Z,100012.91
2023-02-21T03:22:01.606Z,100007.41
2023-02-21T03:24:29.896Z,100017.63
2023-02-21T03:27:06.915Z,100026.59
2023-02-21T03:29:35.764Z,100040.56
2023-02-21T03:32:33.483Z,100044.03
2023-02-21T03:35:00.458Z,100053.53
2023-02-21T03:37:38.626Z,100068.69
2023-02-21T03:40:28.880Z,100088.22
2023-02-21T03:42:58.673Z,100085.88
2023-02-21T03:45:25.981Z,100096.97
2023-02-21T03:47:53.427Z,100127.06
2023-02-21T03:50:20.765Z,100125.88
2023-02-21T03:52:47.779Z,100107.47
2023-02-21T03:55:15.370Z,100098.34
2023-02-21T03:57:42.341Z,100109.25
2023-02-21T04:00:10.922Z,100112.25
2023-02-21T04:02:37.891Z,100112.34
2023-02-21T04:05:05.510Z,100113.50
2023-02-21T04:07:32.762Z,100111.25
2023-02-21T04:09:59.815Z,100117.81
2023-02-21T04:12:27.223Z,100125.75
2023-02-21T04:14:56.613Z,100153.53
2023-02-21T04:17:23.644Z,100145.09
2023-02-21T04:19:51.018Z,100151.22
2023-02-21T04:22:18.464Z,100164.78
2023-02-21T04:24:45.506Z,100170.94
2023-02-21T04:27:12.513Z,100161.25
2023-02-21T04:29:39.499Z,100173.13
2023-02-21T04:32:06.525Z,100157.50
2023-02-21T04:34:33.551Z,100164.25
2023-02-21T04:37:00.574Z,100165.34
2023-02-21T04:39:27.731Z,100181.41
2023-02-21T04:41:54.765Z,100208.00
2023-02-21T04:44:21.756Z,100214.13
2023-02-21T04:46:48.706Z,100230.06
2023-02-21T04:49:15.986Z,100241.81
2023-02-21T04:51:43.034Z,100262.31
2023-02-21T04:54:10.455Z,100271.16
2023-02-21T04:56:39.818Z,100275.38
2023-02-21T04:59:06.884Z,100278.16
2023-02-21T05:01:33.962Z,100270.91
2023-02-21T05:04:01.234Z,100279.72
2023-02-21T05:06:30.103Z,100286.94
2023-02-21T05:08:58.718Z,100284.28
2023-02-21T05:11:26.600Z,100290.25
2023-02-21T05:13:53.814Z,100301.84
2023-02-21T05:16:21.531Z,100313.56
2023-02-21T05:18:49.629Z,100320.72
2023-02-21T05:21:19.374Z,100326.94
2023-02-21T05:23:56.022Z,100320.44
2023-02-21T05:26:31.504Z,100309.44
2023-02-21T05:28:58.836Z,100321.31
2023-02-21T05:31:26.093Z,100327.13
2023-02-21T05:33:53.108Z,100332.34
2023-02-21T05:36:20.366Z,100338.69
2023-02-21T05:38:55.703Z,100343.81
2023-02-21T05:41:23.587Z,100347.41
2023-02-21T05:43:51.439Z,100342.91
2023-02-21T05:46:27.039Z,100352.53
2023-02-21T05:48:57.310Z,100376.59
2023-02-21T05:51:24.752Z,100374.91
2023-02-21T05:53:52.517Z,100379.31
2023-02-21T05:56:20.988Z,100380.38
2023-02-21T05:58:48.336Z,100377.97
2023-02-21T06:01:15.675Z,100392.97
2023-02-21T06:03:43.756Z,100404.38
2023-02-21T06:06:10.834Z,100413.34
2023-02-21T06:08:49.117Z,100403.06
2023-02-21T06:11:27.104Z,100397.22
2023-02-21T06:13:57.376Z,100398.56
2023-02-21T06:16:25.410Z,100389.59
2023-02-21T06:18:57.137Z,100368.94
2023-02-21T06:21:24.254Z,100370.09
2023-02-21T06:23:51.746Z,100358.16
2023-02-21T06:26:19.816Z,100374.13
2023-02-21T06:28:48.173Z,100381.19
2023-02-21T06:31:15.533Z,100371.69
2023-02-21T06:33:43.010Z,100377.63
2023-02-21T06:36:17.453Z,100383.50
2023-02-21T06:38:51.404Z,100423.94
2023-02-21T06:41:21.567Z,100423.16
2023-02-21T06:43:49.671Z,100434.25
2023-02-21T06:46:29.629Z,100435.78
2023-02-21T06:48:57.148Z,100432.16
2023-02-21T06:51:29.620Z,100446.25
2023-02-21T06:53:58.408Z,100460.56
2023-02-21T06:56:25.829Z,100454.53
2023-02-21T06:58:53.075Z,100458.16
2023-02-21T07:01:20.992Z,100474.91
2023-02-21T07:03:48.017Z,100474.63
2023-02-21T07:06:15.882Z,100472.69
2023-02-21T07:08:42.938Z,100467.22
2023-02-21T07:11:10.474Z,100482.19
2023-02-21T07:13:37.616Z,100496.81
2023-02-21T07:16:05.606Z,100503.13
2023-02-21T07:18:33.024Z,100509.63
2023-02-21T07:21:00.287Z,100521.25
2023-02-21T07:23:27.485Z,100526.78
2023-02-21T07:25:54.527Z,100535.94
2023-02-21T07:28:21.571Z,100551.63
2023-02-21T07:30:48.773Z,100555.44
2023-02-21T07:33:16.495Z,100559.25
2023-02-21T07:35:43.499Z,100556.69
2023-02-21T07:38:10.540Z,100570.00
2023-02-21T07:40:37.511Z,100577.19
2023-02-21T07:43:04.575Z,100583.59
2023-02-21T07:45:31.709Z,100585.38
2023-02-21T07:47:58.645Z,100605.00
2023-02-21T07:50:25.702Z,100599.59
2023-02-21T07:52:52.780Z,100612.22
2023-02-21T07:55:19.929Z,100622.38
2023-02-21T07:57:47.049Z,100625.00
2023-02-21T08:00:14.955Z,100636.47
2023-02-21T08:02:42.294Z,100631.00
2023-02-21T08:05:10.010Z,100627.78
2023-02-21T08:07:37.155Z,100635.09
2023-02-21T08:10:05.088Z,100638.78
2023-02-21T08:12:32.074Z,100643.63
2023-02-21T08:14:59.204Z,100644.59
2023-02-21T08:17:26.832Z,100663.66
2023-02-21T08:19:53.847Z,100665.09
2023-02-21T08:22:21.146Z,100670.50
2023-02-21T08:24:51.499Z,100661.84
2023-02-21T08:27:19.166Z,100669.31
2023-02-21T08:29:50.148Z,100678.13
2023-02-21T08:32:17.674Z,100682.00
2023-02-21T08:34:51.309Z,100691.28
2023-02-21T08:37:20.173Z,100689.53
2023-02-21T08:39:53.632Z,100691.56
2023-02-21T08:42:21.963Z,100700.13
2023-02-21T08:44:49.208Z,100700.22
2023-02-21T08:47:18.214Z,100708.69
2023-02-21T08:49:47.643Z,100710.63
2023-02-21T08:55:08.738Z,100716.69
2023-02-21T08:57:35.769Z,100718.00
2023-02-21T09:00:06.827Z,100729.31
2023-02-21T09:02:33.863Z,100721.69
2023-02-21T09:05:00.928Z,100729.31
2023-02-21T09:07:30.446Z,100735.94
2023-02-21T09:09:59.011Z,100734.59
2023-02-21T09:12:28.383Z,100728.81
2023-02-21T09:14:55.335Z,100714.66
2023-02-21T09:17:22.358Z,100718.84
2023-02-21T09:19:49.409Z,100713.22
2023-02-21T09:22:18.466Z,100709.00
2023-02-21T09:24:45.479Z,100709.59
2023-02-21T09:27:12.560Z,100702.13
2023-02-21T09:29:46.348Z,100693.59
2023-02-21T09:32:14.678Z,100677.94
2023-02-21T09:34:41.771Z,100679.34
2023-02-21T09:37:08.893Z,100675.25
2023-02-21T09:39:39.471Z,100657.94
2023-02-21T09:42:06.902Z,100648.38
2023-02-21T09:44:34.564Z,100632.47
2023-02-21T09:47:06.041Z,100617.06
2023-02-21T09:49:44.122Z,100600.66
2023-02-21T09:52:35.915Z,100586.28
2023-02-21T09:55:30.584Z,100583.06
2023-02-21T09:57:57.860Z,100554.66
2023-02-21T10:00:36.043Z,100560.28
2023-02-21T10:03:33.560Z,100532.41
2023-02-21T10:06:23.561Z,100531.72
2023-02-21T10:09:27.616Z,100488.59
2023-02-21T10:12:11.477Z,100490.84
2023-02-21T10:14:56.972Z,100471.59
2023-02-21T10:18:03.851Z,100441.69
2023-02-21T10:20:52.441Z,100460.44
2023-02-21T10:23:32.759Z,100442.16
2023-02-21T10:26:07.802Z,100406.81
2023-02-21T10:28:35.610Z,100383.91
2023-02-21T10:31:13.432Z,100345.91
2023-02-21T10:33:41.019Z,100347.75
2023-02-21T10:36:18.969Z,100342.59
2023-02-21T10:39:17.679Z,100305.50
2023-02-21T10:41:45.568Z,100376.25
2023-02-21T10:44:35.262Z,100295.81
2023-02-21T10:47:20.194Z,100275.50
2023-02-21T10:49:59.712Z,100257.81
2023-02-21T10:52:27.049Z,100246.31
2023-02-21T10:55:32.231Z,100189.78
2023-02-21T10:58:09.572Z,100232.97
2023-02-21T11:00:42.208Z,100251.50
2023-02-21T11:03:27.914Z,100178.16
2023-02-21T11:06:01.913Z,100180.69
2023-02-21T11:08:43.974Z,100150.59
2023-02-21T11:11:11.685Z,100162.91
2023-02-21T11:13:39.278Z,100141.59
2023-02-21T11:16:24.801Z,100130.00
2023-02-21T11:19:08.600Z,100120.97
2023-02-21T11:21:35.817Z,100078.50
2023-02-21T11:24:06.621Z,100050.09
2023-02-21T11:27:00.256Z,100038.41
2023-02-21T11:29:27.430Z,99988.78
2023-02-21T11:31:55.664Z,99976.19
2023-02-21T11:34:29.772Z,99994.56
2023-02-21T11:37:04.087Z,99957.22
2023-02-21T11:39:34.964Z,99942.66
2023-02-21T11:42:06.922Z,99913.19
2023-02-21T11:44:39.945Z,99875.88
2023-02-21T11:47:19.772Z,99878.41
2023-02-21T11:50:04.625Z,99763.75
2023-02-21T11:52:48.697Z,99888.41
2023-02-21T11:55:19.832Z,99891.63
2023-02-21T11:57:58.481Z,99851.00
2023-02-21T12:00:40.646Z,99735.13
2023-02-21T12:03:46.647Z,99729.34
2023-02-21T12:06:29.208Z,99663.66
2023-02-21T12:09:22.446Z,99570.47
2023-02-21T12:12:02.380Z,99661.16
2023-02-21T12:14:46.614Z,99624.78
2023-02-21T12:17:35.410Z,99577.75
2023-02-21T12:20:46.947Z,99558.41
2023-02-21T12:23:25.679Z,99571.34
2023-02-21T12:26:10.996Z,99443.59
2023-02-21T12:29:00.336Z,99537.00
2023-02-21T12:31:55.167Z,99494.59
2023-02-21T12:34:53.915Z,99405.38
2023-02-21T12:38:09.218Z,99385.94
2023-02-21T12:41:07.090Z,99363.00
2023-02-21T12:44:13.720Z,99367.78
2023-02-21T12:46:56.108Z,99278.59
2023-02-21T12:49:45.994Z,99289.97
2023-02-21T12:52:32.187Z,99158.06
2023-02-21T12:55:19.993Z,99208.72
2023-02-21T12:58:14.649Z,99165.00
2023-02-21T13:01:02.450Z,99172.38
2023-02-21T13:03:40.935Z,99174.41
2023-02-21T13:06:31.490Z,99139.66
2023-02-21T13:09:02.200Z,98991.00
2023-02-21T13:11:43.329Z,99009.34
2023-02-21T13:14:17.057Z,99069.91
2023-02-21T13:16:44.186Z,98944.47
2023-02-21T13:19:13.822Z,98999.53
2023-02-21T13:21:53.148Z,98881.06
2023-02-21T13:24:39.814Z,98900.09
2023-02-21T13:27:39.420Z,98861.31
2023-02-21T13:30:38.428Z,98909.66
2023-02-21T13:33:06.294Z,98776.94
2023-02-21T13:35:38.700Z,98778.28
2023-02-21T13:38:10.538Z,98840.69
2023-02-21T13:41:02.883Z,98802.50
2023-02-21T13:43:34.019Z,98788.28
2023-02-21T13:46:31.446Z,98712.69
2023-02-21T13:49:48.004Z,98665.28
2023-02-21T13:52:23.586Z,98661.84
2023-02-21T13:55:21.223Z,98721.91
2023-02-21T13:57:57.617Z,98456.59
2023-02-21T14:00:24.474Z,98606.09
2023-02-21T14:02:59.127Z,98585.00
2023-02-21T14:05:47.196Z,98603.59
2023-02-21T14:08:44.012Z,98534.41
2023-02-21T14:11:23.805Z,98460.72
2023-02-21T14:13:55.421Z,98521.41
2023-02-21T14:16:47.909Z,98338.06
2023-02-21T14:19:35.833Z,98324.38
2023-02-21T14:22:30.891Z,98443.84
2023-02-21T14:25:18.457Z,98386.03
2023-02-21T14:27:45.889Z,98280.09
2023-02-21T14:30:12.949Z,98346.97
2023-02-21T14:32:47.519Z,98277.00
2023-02-21T14:35:20.199Z,98200.13
2023-02-21T14:38:05.063Z,98243.06
2023-02-21T14:40:34.925Z,98285.69
2023-02-21T14:43:51.131Z,98132.66
2023-02-21T14:46:51.483Z,98145.44
2023-02-21T14:49:36.384Z,98224.81
2023-02-21T14:52:37.868Z,98074.28
2023-02-21T14:55:32.200Z,98176.22
2023-02-21T14:58:15.213Z,98180.34
2023-02-21T15:01:35.955Z,98080.88
2023-02-21T15:04:15.832Z,98068.31
2023-02-21T15:06:56.356Z,98069.59
2023-02-21T15:09:23.656Z,98050.69
2023-02-21T15:11:59.298Z,98048.03
2023-02-21T15:14:39.009Z,98077.66
2023-02-21T15:17:24.213Z,98017.66
2023-02-21T15:20:15.013Z,97860.91
2023-02-21T15:22:43.157Z,97881.13
2023-02-21T15:25:10.131Z,97882.31
2023-02-21T15:27:53.474Z,97883.25
2023-02-21T15:30:35.530Z,97881.78
2023-02-21T15:33:21.421Z,97882.09
2023-02-21T15:35:56.089Z,97775.50
2023-02-21T15:38:39.495Z,97767.47
2023-02-21T15:41:16.144Z,97788.09
2023-02-21T15:43:58.679Z,97826.19
2023-02-21T15:46:43.723Z,97732.56
2023-02-21T15:49:27.201Z,97714.25
2023-02-21T15:51:54.708Z,97688.75
2023-02-21T15:54:25.977Z,97631.34
2023-02-21T15:57:09.695Z,97620.31
2023-02-21T15:59:38.964Z,97684.28
2023-02-21T16:02:13.548Z,97621.97
2023-02-21T16:04:48.826Z,97705.91
2023-02-21T16:07:30.443Z,97825.47
2023-02-21T16:10:11.858Z,98007.09
2023-02-21T16:12:46.898Z,98003.81
2023-02-21T16:15:23.133Z,98063.09
2023-02-21T16:18:01.520Z,98186.69
2023-02-21T16:20:35.248Z,98203.41
2023-02-21T16:23:21.076Z,98197.50
2023-02-21T16:26:09.978Z,98100.28
2023-02-21T16:28:39.745Z,98110.84
2023-02-21T16:31:12.719Z,98088.09
2023-02-21T16:33:39.975Z,97992.34
2023-02-21T16:36:16.379Z,97974.31
2023-02-21T16:38:43.359Z,97893.13
2023-02-21T16:41:16.321Z,97894.94
2023-02-21T16:43:43.490Z,97983.50
2023-02-21T16:46:10.758Z,98037.06
2023-02-21T16:48:37.776Z,98103.28
2023-02-21T16:51:14.479Z,98132.00
2023-02-21T16:53:43.284Z,98149.28
2023-02-21T16:56:10.301Z,98161.50
2023-02-21T16:58:41.927Z,98136.94
2023-02-21T17:01:21.953Z,98064.19
2023-02-21T17:04:00.650Z,98130.81
2023-02-21T17:06:28.914Z,98081.97
2023-02-21T17:08:56.926Z,98194.84
2023-02-21T17:11:23.922Z,98217.59
2023-02-21T17:13:51.253Z,98244.47
2023-02-21T17:16:19.294Z,98238.72
2023-02-21T17:18:46.953Z,98295.72
2023-02-21T17:21:14.485Z,98316.06
2023-02-21T17:23:43.031Z,98299.66
2023-02-21T17:26:12.403Z,98314.97
2023-02-21T17:28:39.978Z,98380.94
2023-02-21T17:31:07.612Z,98406.84
2023-02-21T17:33:35.712Z,98412.25
2023-02-21T17:36:02.937Z,98419.66
2023-02-21T17:38:30.511Z,98449.38
2023-02-21T17:40:58.734Z,98453.72
2023-02-21T17:43:25.807Z,98511.88
2023-02-21T17:45:52.914Z,98537.09
2023-02-21T17:48:20.292Z,98577.44
2023-02-21T17:50:47.362Z,98588.34
2023-02-21T17:53:14.690Z,98621.06
2023-02-21T17:55:42.452Z,98639.75
2023-02-21T17:58:10.409Z,98658.75
2023-02-21T18:00:39.345Z,98689.28
2023-02-21T18:03:07.627Z,98743.88
2023-02-21T18:05:36.092Z,98760.66
2023-02-21T18:08:04.013Z,98779.16
2023-02-21T18:10:31.040Z,98789.69
2023-02-21T18:12:58.417Z,98791.47
2023-02-21T18:15:30.433Z,98804.16
2023-02-21T18:18:04.792Z,98828.97
2023-02-21T18:20:33.313Z,98862.41
2023-02-21T18:23:03.241Z,98858.91
2023-02-21T18:25:30.590Z,98873.81
2023-02-21T18:27:58.192Z,98883.72
2023-02-21T18:30:25.230Z,98889.97
2023-02-21T18:32:52.556Z,98915.72
2023-02-21T18:35:20.888Z,98912.31
2023-02-21T18:37:48.896Z,98938.88
2023-02-21T18:40:18.477Z,98950.44
2023-02-21T18:42:46.444Z,98968.03
2023-02-21T18:45:13.564Z,98979.38
2023-02-21T18:47:40.897Z,98978.50
2023-02-21T18:50:08.722Z,98991.06
2023-02-21T18:52:35.783Z,99014.03
2023-02-21T18:55:04.201Z,99027.91
2023-02-21T18:57:31.859Z,99027.06
2023-02-21T18:59:59.204Z,99043.72
2023-02-21T19:02:27.172Z,99044.59
2023-02-21T19:04:54.309Z,99044.69
2023-02-21T19:07:21.390Z,99045.56
2023-02-21T19:09:51.730Z,99049.19
2023-02-21T19:12:18.933Z,99067.63
2023-02-21T19:14:46.322Z,99069.41
2023-02-21T19:17:13.448Z,99071.19
2023-02-21T19:19:43.805Z,99079.94
2023-02-21T19:22:10.810Z,99094.84
2023-02-21T19:24:37.865Z,99094.81
2023-02-21T19:27:04.929Z,99098.34
2023-02-21T19:29:31.923Z,99095.69
2023-02-21T19:31:59.111Z,99086.94
2023-02-21T19:34:26.380Z,99079.97
2023-02-21T19:36:53.393Z,99093.16
2023-02-21T19:39:20.452Z,99095.78
2023-02-21T19:41:47.637Z,99117.72
2023-02-21T19:44:15.402Z,99130.00
2023-02-21T19:46:42.460Z,99135.25
2023-02-21T19:49:18.745Z,99148.41
2023-02-21T19:51:49.028Z,99162.44
2023-02-21T19:54:20.312Z,99165.13
2023-02-21T19:56:50.086Z,99175.66
2023-02-21T19:59:18.782Z,99172.09
2023-02-21T20:01:46.265Z,99165.94
2023-02-21T20:04:13.423Z,99172.06
2023-02-21T20:06:40.506Z,99179.94
2023-02-21T20:11:49.876Z,99207.06
2023-02-21T20:14:17.773Z,99213.97
2023-02-21T20:16:46.525Z,99227.97
2023-02-21T20:19:15.038Z,99244.53
2023-02-21T20:21:43.128Z,99248.81
2023-02-21T20:24:10.991Z,99266.94
2023-02-21T20:26:39.111Z,99292.44
2023-02-21T20:29:08.960Z,99314.56
2023-02-21T20:31:38.811Z,99330.25
2023-02-21T20:34:06.993Z,99339.72
2023-02-21T20:36:38.036Z,99350.22
2023-02-21T20:39:07.103Z,99350.91
2023-02-21T20:41:39.122Z,99356.97
2023-02-21T20:44:07.298Z,99367.44
2023-02-21T20:46:35.019Z,99370.88
2023-02-21T20:49:03.366Z,99375.81
2023-02-21T20:51:36.919Z,99383.75
2023-02-21T20:54:04.854Z,99392.53
2023-02-21T20:56:39.589Z,99410.03
2023-02-21T20:59:15.827Z,99413.97
2023-02-21T21:01:48.464Z,99422.69
2023-02-21T21:04:22.098Z,99430.41
2023-02-21T21:06:49.635Z,99440.16
2023-02-21T21:09:18.171Z,99437.94
2023-02-21T21:11:45.921Z,99454.81
2023-02-21T21:14:16.606Z,99479.38
2023-02-21T21:16:46.621Z,99493.44
2023-02-21T21:19:13.713Z,99494.09
2023-02-21T21:21:40.755Z,99504.66
2023-02-21T21:24:07.955Z,99506.22
2023-02-21T21:26:35.069Z,99535.41
2023-02-21T21:29:02.087Z,99537.94
2023-02-21T21:31:29.216Z,99538.88
2023-02-21T21:33:56.499Z,99562.66
2023-02-21T21:36:26.558Z,99556.09
2023-02-21T21:38:53.645Z,99558.72
2023-02-21T21:41:20.858Z,99573.81
2023-02-21T21:43:48.444Z,99570.19
2023-02-21T21:46:16.264Z,99594.09
2023-02-21T21:48:44.633Z,99610.94
2023-02-21T21:51:14.154Z,99584.28
2023-02-21T21:53:41.614Z,99591.19
2023-02-21T21:56:11.449Z,99590.25
2023-02-21T21:58:38.440Z,99603.53
2023-02-21T22:01:05.818Z,99622.03
2023-02-21T22:03:34.810Z,99613.03
2023-02-21T22:06:02.020Z,99605.81
2023-02-21T22:08:29.658Z,99600.13
2023-02-21T22:11:00.172Z,99598.44
2023-02-21T22:13:29.549Z,99601.63
2023-02-21T22:15:56.661Z,99599.47
2023-02-21T22:18:24.146Z,99589.53
2023-02-21T22:20:51.140Z,99606.97
2023-02-21T22:23:26.743Z,99616.88
2023-02-21T22:25:53.686Z,99625.94
2023-02-21T22:28:20.633Z,99632.41
2023-02-21T22:30:47.678Z,99673.81
2023-02-21T22:33:18.806Z,99667.44
2023-02-21T22:35:47.154Z,99672.81
2023-02-21T22:38:17.225Z,99686.13
2023-02-21T22:40:44.519Z,99691.28
2023-02-21T22:43:13.654Z,99678.81
2023-02-21T22:45:44.298Z,99682.34
2023-02-21T22:48:11.693Z,99690.19
2023-02-21T22:50:39.572Z,99688.19
2023-02-21T22:53:13.018Z,99685.16
2023-02-21T22:55:40.133Z,99677.84
2023-02-21T22:58:09.519Z,99674.25
2023-02-21T23:00:37.919Z,99681.34
2023-02-21T23:03:14.672Z,99690.25
2023-02-21T23:05:47.791Z,99680.59
2023-02-21T23:08:20.681Z,99702.41
2023-02-21T23:10:48.664Z,99723.50
2023-02-21T23:13:20.854Z,99723.31
2023-02-21T23:15:49.549Z,99718.03
2023-02-21T23:18:24.086Z,99723.00
2023-02-21T23:20:57.260Z,99720.09
2023-02-21T23:23:28.636Z,99718.75
2023-02-21T23:25:59.359Z,99723.81
2023-02-21T23:28:31.756Z,99732.97
2023-02-21T23:30:58.702Z,99741.19
2023-02-21T23:33:29.595Z,99734.63
2023-02-21T23:35:57.864Z,99751.25
2023-02-21T23:38:28.252Z,99760.81
2023-02-21T23:40:58.830Z,99765.97
2023-02-21T23:43:30.248Z,99770.22
2023-02-21T23:45:59.103Z,99802.09
2023-02-21T23:48:26.451Z,99794.31
2023-02-21T23:50:57.735Z,99785.44
2023-02-21T23:53:27.652Z,99809.31
2023-02-21T23:55:57.650Z,99809.09
2023-02-21T23:58:29.037Z,99815.97
